createdAt,value
2017-09-28T00:00:45.313Z,91.80
2017-09-28T00:03:13.228Z,91.70
2017-09-28T00:05:41.697Z,91.70
2017-09-28T00:08:10.500Z,91.30
2017-09-28T00:10:38.427Z,91.30
2017-09-28T00:13:06.409Z,91.10
2017-09-28T00:15:34.370Z,91.00
2017-09-28T00:18:02.323Z,90.90
2017-09-28T00:20:30.099Z,91.00
2017-09-28T00:22:57.954Z,91.40
2017-09-28T00:25:25.742Z,91.40
2017-09-28T00:27:53.490Z,91.60
2017-09-28T00:30:21.336Z,91.50
2017-09-28T00:32:49.071Z,91.30
2017-09-28T00:35:17.079Z,91.20
2017-09-28T00:37:46.175Z,91.10
2017-09-28T00:40:14.068Z,91.10
2017-09-28T00:42:44.075Z,90.80
2017-09-28T00:45:11.949Z,90.60
2017-09-28T00:47:39.812Z,90.70
2017-09-28T00:50:08.001Z,90.90
2017-09-28T00:52:35.960Z,91.00
2017-09-28T00:55:03.905Z,91.10
2017-09-28T00:57:31.798Z,91.20
2017-09-28T00:59:59.669Z,91.30
2017-09-28T01:02:27.522Z,91.50
2017-09-28T01:04:55.389Z,91.70
2017-09-28T01:07:23.353Z,91.90
2017-09-28T01:09:51.686Z,91.70
2017-09-28T01:12:19.707Z,91.50
2017-09-28T01:14:48.578Z,91.70
2017-09-28T01:17:16.755Z,91.40
2017-09-28T01:19:44.634Z,91.60
2017-09-28T01:22:13.142Z,91.60
2017-09-28T01:24:42.706Z,92.00
2017-09-28T01:27:11.375Z,91.60
2017-09-28T01:29:39.281Z,91.60
2017-09-28T01:32:07.145Z,91.40
2017-09-28T01:34:35.104Z,90.80
2017-09-28T01:37:03.088Z,90.40
2017-09-28T01:39:31.172Z,90.40
2017-09-28T01:42:02.773Z,90.40
2017-09-28T01:44:33.184Z,90.40
2017-09-28T01:47:01.628Z,90.70
2017-09-28T01:49:30.297Z,90.90
2017-09-28T01:51:58.247Z,90.90
2017-09-28T01:54:26.129Z,90.90
2017-09-28T01:56:54.620Z,91.10
2017-09-28T01:59:22.482Z,90.60
2017-09-28T02:01:50.346Z,90.70
2017-09-28T02:04:18.212Z,90.60
2017-09-28T02:06:46.166Z,90.10
2017-09-28T02:09:14.049Z,90.00
2017-09-28T02:11:42.941Z,90.10
2017-09-28T02:14:10.993Z,90.40
2017-09-28T02:16:38.871Z,90.40
2017-09-28T02:19:06.738Z,90.30
2017-09-28T02:21:34.551Z,90.40
2017-09-28T02:24:02.562Z,90.60
2017-09-28T02:26:30.556Z,90.60
2017-09-28T02:28:59.113Z,90.60
2017-09-28T02:31:26.885Z,90.40
2017-09-28T02:33:55.067Z,90.60
2017-09-28T02:36:22.936Z,90.60
2017-09-28T02:38:50.794Z,90.70
2017-09-28T02:41:18.667Z,90.90
2017-09-28T02:43:47.253Z,90.80
2017-09-28T02:46:15.319Z,90.80
2017-09-28T02:48:43.271Z,90.90
2017-09-28T02:51:11.239Z,91.00
2017-09-28T02:53:39.125Z,90.90
2017-09-28T02:56:07.075Z,91.00
2017-09-28T02:58:35.598Z,91.10
2017-09-28T03:01:03.541Z,91.00
2017-09-28T03:03:31.332Z,91.10
2017-09-28T03:05:59.887Z,91.10
2017-09-28T03:08:32.782Z,91.10
2017-09-28T03:11:00.545Z,91.00
2017-09-28T03:13:28.513Z,91.00
2017-09-28T03:15:56.298Z,91.20
2017-09-28T03:18:24.964Z,91.50
2017-09-28T03:20:52.818Z,91.50
2017-09-28T03:23:20.718Z,91.30
2017-09-28T03:25:49.475Z,90.60
2017-09-28T03:28:17.338Z,90.60
2017-09-28T03:30:45.119Z,90.50
2017-09-28T03:33:13.687Z,90.70
2017-09-28T03:35:42.362Z,90.00
2017-09-28T03:38:10.165Z,90.10
2017-09-28T03:40:38.889Z,90.60
2017-09-28T03:43:06.696Z,90.60
2017-09-28T03:45:34.644Z,90.70
2017-09-28T03:48:02.488Z,90.90
2017-09-28T03:50:30.271Z,91.10
2017-09-28T03:52:58.154Z,91.30
2017-09-28T03:55:26.008Z,91.40
2017-09-28T03:57:54.545Z,91.70
2017-09-28T04:00:23.201Z,91.70
2017-09-28T04:02:51.890Z,91.70
2017-09-28T04:05:20.156Z,91.70
2017-09-28T04:07:48.104Z,92.20
2017-09-28T04:10:15.867Z,92.40
2017-09-28T04:12:44.580Z,92.20
2017-09-28T04:15:12.434Z,92.20
2017-09-28T04:17:40.385Z,92.00
2017-09-28T04:20:08.808Z,91.70
2017-09-28T04:22:37.351Z,91.80
2017-09-28T04:25:05.262Z,91.80
2017-09-28T04:27:33.919Z,91.90
2017-09-28T04:30:01.788Z,91.90
2017-09-28T04:32:29.736Z,91.80
2017-09-28T04:34:57.525Z,92.00
2017-09-28T04:37:26.783Z,92.00
2017-09-28T04:39:54.665Z,92.00
2017-09-28T04:42:24.089Z,92.20
2017-09-28T04:44:51.960Z,92.40
2017-09-28T04:47:19.807Z,92.10
2017-09-28T04:49:47.696Z,91.90
2017-09-28T04:52:15.454Z,92.20
2017-09-28T04:54:44.037Z,92.80
2017-09-28T04:57:12.578Z,92.80
2017-09-28T04:59:41.592Z,93.30
2017-09-28T05:02:09.490Z,93.30
2017-09-28T05:04:39.854Z,93.30
2017-09-28T05:07:07.667Z,93.30
2017-09-28T05:09:35.533Z,93.40
2017-09-28T05:12:03.315Z,93.40
2017-09-28T05:14:32.901Z,93.90
2017-09-28T05:17:00.613Z,93.70
2017-09-28T05:19:30.495Z,93.70
2017-09-28T05:21:59.151Z,93.60
2017-09-28T05:24:26.963Z,93.60
2017-09-28T05:26:55.619Z,92.80
2017-09-28T05:29:23.424Z,92.80
2017-09-28T05:31:51.353Z,92.70
2017-09-28T05:34:19.231Z,92.60
2017-09-28T05:36:47.295Z,92.40
2017-09-28T05:39:15.268Z,91.80
2017-09-28T05:41:44.763Z,91.40
2017-09-28T05:44:12.600Z,91.50
2017-09-28T05:46:40.397Z,91.40
2017-09-28T05:49:08.671Z,91.00
2017-09-28T05:51:36.622Z,91.00
2017-09-28T05:54:04.399Z,91.00
2017-09-28T05:56:32.250Z,90.70
2017-09-28T05:59:00.130Z,90.50
2017-09-28T06:01:28.037Z,90.30
2017-09-28T06:03:56.684Z,88.90
2017-09-28T06:06:24.760Z,88.90
2017-09-28T06:08:52.498Z,87.60
2017-09-28T06:11:21.188Z,87.90
2017-09-28T06:13:48.967Z,86.20
2017-09-28T06:16:16.830Z,85.40
2017-09-28T06:18:46.846Z,84.50
2017-09-28T06:21:15.094Z,84.10
2017-09-28T06:23:43.032Z,84.40
2017-09-28T06:26:12.787Z,83.00
2017-09-28T06:28:40.678Z,83.00
2017-09-28T06:31:08.450Z,83.10
2017-09-28T06:33:36.232Z,83.60
2017-09-28T06:36:04.891Z,84.10
2017-09-28T06:38:32.754Z,84.10
2017-09-28T06:41:00.625Z,84.10
2017-09-28T06:43:29.392Z,83.60
2017-09-28T06:45:58.204Z,82.90
2017-09-28T06:48:26.073Z,82.20
2017-09-28T06:50:55.672Z,81.20
2017-09-28T06:53:24.239Z,79.50
2017-09-28T06:55:52.930Z,77.70
2017-09-28T06:58:21.084Z,76.30
2017-09-28T07:00:48.874Z,73.90
2017-09-28T07:03:16.834Z,73.90
2017-09-28T07:05:44.924Z,72.80
2017-09-28T07:08:12.785Z,72.90
2017-09-28T07:10:40.737Z,72.60
2017-09-28T07:13:09.546Z,72.60
2017-09-28T07:15:37.621Z,73.40
2017-09-28T07:18:05.390Z,74.00
2017-09-28T07:20:33.989Z,73.40
2017-09-28T07:23:02.630Z,73.80
2017-09-28T07:25:30.494Z,73.70
2017-09-28T07:27:59.194Z,71.20
2017-09-28T07:30:28.251Z,71.20
2017-09-28T07:32:56.083Z,69.70
2017-09-28T07:35:24.830Z,72.90
2017-09-28T07:37:52.712Z,72.90
2017-09-28T07:40:20.756Z,75.50
2017-09-28T07:42:48.703Z,73.50
2017-09-28T07:45:16.614Z,73.60
2017-09-28T07:47:44.701Z,73.00
2017-09-28T07:50:12.958Z,72.20
2017-09-28T07:52:41.850Z,71.00
2017-09-28T07:55:09.615Z,71.40
2017-09-28T07:57:38.187Z,70.60
2017-09-28T08:00:06.030Z,69.30
2017-09-28T08:02:34.634Z,67.40
2017-09-28T08:05:02.606Z,68.60
2017-09-28T08:07:30.401Z,69.40
2017-09-28T08:09:58.851Z,70.20
2017-09-28T08:12:27.023Z,68.90
2017-09-28T08:14:54.805Z,69.20
2017-09-28T08:17:22.564Z,69.30
2017-09-28T08:19:50.441Z,70.30
2017-09-28T08:22:20.155Z,67.30
2017-09-28T08:24:48.120Z,67.00
2017-09-28T08:27:16.184Z,66.80
2017-09-28T08:29:44.051Z,66.90
2017-09-28T08:32:11.998Z,67.10
2017-09-28T08:34:39.879Z,66.40
2017-09-28T08:37:07.749Z,67.10
2017-09-28T08:39:35.531Z,67.40
2017-09-28T08:42:04.802Z,64.70
2017-09-28T08:44:34.109Z,64.30
2017-09-28T08:47:02.589Z,65.10
2017-09-28T08:49:31.061Z,64.70
2017-09-28T08:51:59.041Z,64.70
2017-09-28T08:54:27.007Z,66.00
2017-09-28T08:56:54.878Z,65.60
2017-09-28T08:59:22.896Z,64.40
2017-09-28T09:01:51.530Z,62.90
2017-09-28T09:04:19.404Z,62.80
2017-09-28T09:06:47.175Z,62.90
2017-09-28T09:09:16.756Z,57.60
2017-09-28T09:11:44.533Z,57.60
2017-09-28T09:14:12.603Z,58.30
2017-09-28T09:16:40.475Z,58.70
2017-09-28T09:19:08.454Z,61.20
2017-09-28T09:21:37.215Z,59.50
2017-09-28T09:24:04.970Z,58.50
2017-09-28T09:26:32.744Z,60.30
2017-09-28T09:29:00.506Z,61.20
2017-09-28T09:31:28.380Z,59.50
2017-09-28T09:33:56.121Z,66.40
2017-09-28T09:36:24.225Z,68.20
2017-09-28T09:38:52.587Z,70.60
2017-09-28T09:41:20.559Z,72.20
2017-09-28T09:43:48.630Z,74.30
2017-09-28T09:46:16.618Z,72.90
2017-09-28T09:48:44.400Z,74.60
2017-09-28T09:51:13.867Z,73.90
2017-09-28T09:53:41.754Z,73.90
2017-09-28T09:56:09.555Z,74.00
2017-09-28T09:58:38.034Z,75.40
2017-09-28T10:01:06.684Z,76.70
2017-09-28T10:03:34.775Z,76.90
2017-09-28T10:06:03.960Z,74.60
2017-09-28T10:08:33.699Z,74.70
2017-09-28T10:11:05.367Z,73.80
2017-09-28T10:13:39.513Z,73.60
2017-09-28T10:16:12.383Z,75.60
2017-09-28T10:18:40.298Z,74.00
2017-09-28T10:21:08.134Z,75.00
2017-09-28T10:23:35.925Z,76.20
2017-09-28T10:26:03.764Z,75.70
2017-09-28T10:28:31.541Z,76.90
2017-09-28T10:31:00.534Z,76.60
2017-09-28T10:33:28.417Z,77.80
2017-09-28T10:35:56.179Z,77.40
2017-09-28T10:38:25.059Z,74.70
2017-09-28T10:40:52.838Z,74.70
2017-09-28T10:43:21.494Z,74.10
2017-09-28T10:45:49.386Z,74.10
2017-09-28T10:48:17.142Z,73.90
2017-09-28T10:50:44.875Z,74.40
2017-09-28T10:53:12.753Z,74.30
2017-09-28T10:55:40.755Z,72.20
2017-09-28T10:58:09.410Z,73.10
2017-09-28T11:00:37.202Z,74.80
2017-09-28T11:03:05.979Z,74.90
2017-09-28T11:05:33.763Z,74.80
2017-09-28T11:08:02.293Z,73.50
2017-09-28T11:10:30.194Z,73.50
2017-09-28T11:12:58.660Z,74.20
2017-09-28T11:15:26.449Z,74.20
2017-09-28T11:17:54.199Z,75.90
2017-09-28T11:20:22.057Z,75.30
2017-09-28T11:22:49.831Z,75.20
2017-09-28T11:25:17.715Z,72.50
2017-09-28T11:27:45.580Z,72.10
2017-09-28T11:30:14.336Z,71.10
2017-09-28T11:32:42.305Z,71.00
2017-09-28T11:35:10.204Z,72.50
2017-09-28T11:37:38.779Z,70.60
2017-09-28T11:40:06.743Z,70.60
2017-09-28T11:42:34.516Z,71.70
2017-09-28T11:45:02.309Z,71.50
2017-09-28T11:47:30.956Z,72.20
2017-09-28T11:49:58.830Z,72.30
2017-09-28T11:52:27.631Z,73.00
2017-09-28T11:54:56.293Z,72.70
2017-09-28T11:57:24.169Z,72.70
2017-09-28T11:59:52.040Z,72.40
2017-09-28T12:02:20.696Z,73.30
2017-09-28T12:04:48.586Z,73.40
2017-09-28T12:07:17.169Z,74.40
2017-09-28T12:09:45.094Z,73.90
2017-09-28T12:12:12.908Z,75.20
2017-09-28T12:14:42.205Z,74.80
2017-09-28T12:17:11.623Z,75.10
2017-09-28T12:19:40.293Z,77.80
2017-09-28T12:22:09.699Z,76.20
2017-09-28T12:24:38.361Z,77.10
2017-09-28T12:27:06.324Z,76.60
2017-09-28T12:29:34.177Z,75.50
2017-09-28T12:32:01.948Z,75.70
2017-09-28T12:34:29.845Z,73.80
2017-09-28T12:36:57.605Z,75.30
2017-09-28T12:39:25.686Z,72.70
2017-09-28T12:41:55.265Z,70.40
2017-09-28T12:44:24.161Z,70.50
2017-09-28T12:46:52.023Z,71.30
2017-09-28T12:49:20.119Z,71.70
2017-09-28T12:51:47.992Z,71.60
2017-09-28T12:54:16.673Z,70.50
2017-09-28T12:56:45.352Z,69.60
2017-09-28T12:59:13.817Z,69.40
2017-09-28T13:01:41.713Z,70.60
2017-09-28T13:04:10.476Z,67.80
2017-09-28T13:06:39.264Z,67.60
2017-09-28T13:09:07.144Z,67.60
2017-09-28T13:11:35.103Z,68.40
2017-09-28T13:14:03.166Z,67.70
2017-09-28T13:16:30.947Z,67.70
2017-09-28T13:18:58.789Z,65.10
2017-09-28T13:21:26.693Z,66.00
2017-09-28T13:23:57.382Z,66.30
2017-09-28T13:26:25.260Z,66.30
2017-09-28T13:28:53.438Z,66.10
2017-09-28T13:31:21.221Z,65.70
2017-09-28T13:33:49.093Z,65.70
2017-09-28T13:36:18.484Z,66.20
2017-09-28T13:38:46.255Z,66.30
2017-09-28T13:41:14.216Z,63.90
2017-09-28T13:46:16.819Z,65.60
2017-09-28T13:48:44.671Z,65.70
2017-09-28T13:51:12.548Z,68.00
2017-09-28T13:53:40.397Z,68.20
2017-09-28T13:56:08.383Z,69.30
2017-09-28T13:58:36.351Z,69.50
2017-09-28T14:01:04.197Z,70.00
2017-09-28T14:03:33.093Z,70.40
2017-09-28T14:06:01.085Z,71.10
2017-09-28T14:08:28.991Z,70.90
2017-09-28T14:10:57.557Z,72.10
2017-09-28T14:13:26.214Z,73.40
2017-09-28T14:15:53.984Z,73.40
2017-09-28T14:18:22.422Z,72.50
2017-09-28T14:20:50.254Z,73.50
2017-09-28T14:23:18.780Z,72.10
2017-09-28T14:25:46.564Z,72.00
2017-09-28T14:28:14.944Z,73.10
2017-09-28T14:30:42.812Z,73.90
2017-09-28T14:33:10.572Z,74.90
2017-09-28T14:35:38.542Z,73.50
2017-09-28T14:38:07.435Z,72.80
2017-09-28T14:40:35.362Z,72.50
2017-09-28T14:43:03.263Z,72.70
2017-09-28T14:45:31.115Z,73.80
2017-09-28T14:47:58.847Z,74.30
2017-09-28T14:50:26.672Z,74.40
2017-09-28T14:52:54.655Z,74.00
2017-09-28T14:55:23.226Z,75.60
2017-09-28T14:57:51.186Z,74.90
2017-09-28T15:00:19.344Z,73.70
2017-09-28T15:02:47.124Z,70.50
2017-09-28T15:05:15.820Z,73.20
2017-09-28T15:07:44.211Z,71.40
2017-09-28T15:10:12.739Z,70.30
2017-09-28T15:12:40.627Z,70.80
2017-09-28T15:15:08.920Z,69.80
2017-09-28T15:17:36.699Z,67.10
2017-09-28T15:20:05.979Z,68.90
2017-09-28T15:22:33.743Z,68.50
2017-09-28T15:25:01.899Z,68.00
2017-09-28T15:27:29.875Z,67.90
2017-09-28T15:29:57.754Z,68.50
2017-09-28T15:32:25.559Z,69.40
2017-09-28T15:34:54.391Z,69.70
2017-09-28T15:37:23.029Z,68.00
2017-09-28T15:39:51.762Z,67.30
2017-09-28T15:42:19.744Z,67.40
2017-09-28T15:44:47.722Z,66.90
2017-09-28T15:47:15.674Z,67.80
2017-09-28T15:49:44.471Z,68.80
2017-09-28T15:52:12.356Z,69.20
2017-09-28T15:54:40.097Z,69.20
2017-09-28T15:57:07.953Z,68.70
2017-09-28T15:59:36.548Z,68.60
2017-09-28T16:02:04.321Z,69.50
2017-09-28T16:04:32.270Z,69.40
2017-09-28T16:07:00.238Z,70.50
2017-09-28T16:09:28.123Z,71.10
2017-09-28T16:11:56.073Z,71.90
2017-09-28T16:14:23.944Z,72.50
2017-09-28T16:16:51.828Z,73.70
2017-09-28T16:19:20.810Z,75.50
2017-09-28T16:21:48.774Z,76.50
2017-09-28T16:24:16.841Z,77.60
2017-09-28T16:26:44.830Z,78.90
2017-09-28T16:29:12.592Z,81.40
2017-09-28T16:31:40.336Z,81.60
2017-09-28T16:34:08.745Z,83.00
2017-09-28T16:36:36.517Z,84.20
2017-09-28T16:39:05.095Z,85.50
2017-09-28T16:41:33.045Z,85.40
2017-09-28T16:44:01.018Z,84.90
2017-09-28T16:46:28.867Z,85.90
2017-09-28T16:48:57.981Z,86.60
2017-09-28T16:51:25.804Z,86.80
2017-09-28T16:53:53.613Z,87.30
2017-09-28T16:56:22.104Z,87.70
2017-09-28T16:58:52.604Z,88.60
2017-09-28T17:01:20.900Z,88.80
2017-09-28T17:03:48.843Z,89.60
2017-09-28T17:06:16.625Z,90.10
2017-09-28T17:08:44.487Z,90.60
2017-09-28T17:11:12.357Z,91.20
2017-09-28T17:13:40.191Z,91.90
2017-09-28T17:16:08.078Z,91.80
2017-09-28T17:18:35.959Z,92.10
2017-09-28T17:21:05.061Z,92.60
2017-09-28T17:23:33.934Z,93.00
2017-09-28T17:26:02.352Z,93.00
2017-09-28T17:28:30.898Z,92.70
2017-09-28T17:30:58.984Z,92.60
2017-09-28T17:33:27.921Z,92.70
2017-09-28T17:35:55.820Z,92.70
2017-09-28T17:38:23.618Z,92.80
2017-09-28T17:40:51.673Z,93.00
2017-09-28T17:43:20.659Z,92.90
2017-09-28T17:45:49.458Z,92.90
2017-09-28T17:48:17.312Z,93.00
2017-09-28T17:50:45.177Z,93.30
2017-09-28T17:53:13.151Z,93.50
2017-09-28T17:55:41.727Z,93.70
2017-09-28T17:58:09.921Z,93.80
2017-09-28T18:00:37.987Z,93.80
2017-09-28T18:03:05.940Z,93.80
2017-09-28T18:05:33.702Z,93.40
2017-09-28T18:08:01.603Z,92.60
2017-09-28T18:10:31.506Z,91.90
2017-09-28T18:12:59.277Z,91.90
2017-09-28T18:15:28.150Z,91.90
2017-09-28T18:17:55.915Z,91.80
2017-09-28T18:20:23.801Z,91.50
2017-09-28T18:22:52.069Z,91.40
2017-09-28T18:25:20.830Z,91.10
2017-09-28T18:27:48.591Z,91.10
2017-09-28T18:30:16.700Z,91.20
2017-09-28T18:32:44.633Z,91.30
2017-09-28T18:35:12.411Z,91.30
2017-09-28T18:37:40.384Z,91.40
2017-09-28T18:40:08.205Z,91.50
2017-09-28T18:42:36.020Z,91.70
2017-09-28T18:45:04.112Z,91.90
2017-09-28T18:47:33.471Z,92.20
2017-09-28T18:50:02.219Z,92.20
2017-09-28T18:52:30.227Z,92.50
2017-09-28T18:54:58.419Z,92.70
2017-09-28T18:57:26.389Z,92.70
2017-09-28T18:59:54.242Z,92.70
2017-09-28T19:02:22.662Z,92.90
2017-09-28T19:04:51.302Z,92.50
2017-09-28T19:07:19.170Z,92.50
2017-09-28T19:09:47.039Z,92.20
2017-09-28T19:12:14.803Z,92.20
2017-09-28T19:14:42.562Z,92.20
2017-09-28T19:17:10.458Z,92.20
2017-09-28T19:19:38.312Z,92.00
2017-09-28T19:22:06.182Z,91.60
2017-09-28T19:24:34.235Z,91.30
2017-09-28T19:27:02.117Z,91.60
2017-09-28T19:29:29.966Z,91.20
2017-09-28T19:31:57.960Z,91.50
2017-09-28T19:34:25.833Z,91.00
2017-09-28T19:36:53.675Z,90.80
2017-09-28T19:39:21.518Z,90.80
2017-09-28T19:41:49.439Z,90.90
2017-09-28T19:44:18.128Z,90.30
2017-09-28T19:46:46.871Z,90.10
2017-09-28T19:49:14.823Z,90.10
2017-09-28T19:51:42.737Z,90.30
2017-09-28T19:54:12.137Z,90.20
2017-09-28T19:56:40.105Z,90.10
2017-09-28T19:59:08.042Z,89.10
2017-09-28T20:01:36.480Z,89.00
2017-09-28T20:04:05.317Z,89.10
2017-09-28T20:06:33.105Z,89.10
2017-09-28T20:09:00.922Z,88.70
2017-09-28T20:11:28.848Z,88.00
2017-09-28T20:13:56.709Z,87.50
2017-09-28T20:19:17.407Z,87.70
2017-09-28T20:21:45.368Z,87.60
2017-09-28T20:24:13.410Z,87.80
2017-09-28T20:26:41.224Z,87.70
2017-09-28T20:29:09.193Z,87.30
2017-09-28T20:31:36.995Z,87.60
2017-09-28T20:34:04.909Z,87.30
2017-09-28T20:36:32.978Z,87.50
2017-09-28T20:39:00.982Z,86.90
2017-09-28T20:41:28.831Z,87.10
2017-09-28T20:43:57.030Z,86.70
2017-09-28T20:46:25.599Z,86.30
2017-09-28T20:48:55.100Z,86.30
2017-09-28T20:51:23.075Z,86.10
2017-09-28T20:53:51.040Z,86.50
2017-09-28T20:56:18.899Z,86.70
2017-09-28T20:58:46.883Z,86.50
2017-09-28T21:01:14.831Z,86.50
2017-09-28T21:03:42.828Z,86.50
2017-09-28T21:06:11.350Z,86.70
2017-09-28T21:08:39.249Z,86.70
2017-09-28T21:11:07.204Z,86.90
2017-09-28T21:13:35.088Z,86.80
2017-09-28T21:16:03.060Z,87.20
2017-09-28T21:18:30.880Z,87.40
2017-09-28T21:20:58.783Z,87.80
2017-09-28T21:23:26.810Z,87.80
2017-09-28T21:25:54.576Z,87.70
2017-09-28T21:28:22.313Z,87.40
2017-09-28T21:30:50.946Z,87.50
2017-09-28T21:33:18.743Z,87.50
2017-09-28T21:35:46.706Z,87.60
2017-09-28T21:38:15.080Z,87.20
2017-09-28T21:40:42.954Z,87.00
2017-09-28T21:43:10.769Z,87.20
2017-09-28T21:45:38.587Z,87.20
2017-09-28T21:48:06.458Z,87.60
2017-09-28T21:50:34.198Z,87.80
2017-09-28T21:53:02.165Z,88.70
2017-09-28T21:55:30.031Z,89.20
2017-09-28T21:57:57.896Z,89.50
2017-09-28T22:00:25.641Z,90.00
2017-09-28T22:02:53.404Z,90.00
2017-09-28T22:05:21.198Z,90.20
2017-09-28T22:07:48.949Z,90.30
2017-09-28T22:10:16.934Z,90.50
2017-09-28T22:12:44.805Z,90.50
2017-09-28T22:15:12.642Z,90.80
2017-09-28T22:17:40.539Z,91.20
2017-09-28T22:20:08.452Z,91.20
2017-09-28T22:22:36.674Z,90.90
2017-09-28T22:25:04.632Z,90.70
2017-09-28T22:27:32.511Z,90.70
2017-09-28T22:30:00.730Z,90.50
2017-09-28T22:32:28.567Z,90.30
2017-09-28T22:34:56.522Z,90.00
2017-09-28T22:37:24.590Z,90.20
2017-09-28T22:39:52.446Z,90.20
2017-09-28T22:42:20.359Z,89.60
2017-09-28T22:44:49.005Z,88.50
2017-09-28T22:47:16.868Z,88.60
2017-09-28T22:49:44.583Z,87.30
2017-09-28T22:52:13.326Z,87.20
2017-09-28T22:54:41.186Z,87.30
2017-09-28T22:57:09.096Z,87.70
2017-09-28T22:59:37.587Z,88.50
2017-09-28T23:02:06.125Z,89.10
2017-09-28T23:04:33.923Z,89.20
2017-09-28T23:07:02.535Z,89.50
2017-09-28T23:09:30.395Z,89.50
2017-09-28T23:11:58.208Z,89.50
2017-09-28T23:14:26.159Z,89.50
2017-09-28T23:16:54.023Z,90.10
2017-09-28T23:19:21.928Z,90.00
2017-09-28T23:21:49.669Z,89.70
2017-09-28T23:24:17.539Z,89.60
2017-09-28T23:26:45.286Z,88.70
2017-09-28T23:29:13.375Z,88.90
2017-09-28T23:31:41.531Z,88.10
2017-09-28T23:34:09.413Z,87.80
2017-09-28T23:36:37.170Z,87.00
2017-09-28T23:39:05.048Z,87.00
2017-09-28T23:41:32.791Z,87.60
2017-09-28T23:44:00.575Z,87.40
2017-09-28T23:46:28.626Z,87.60
2017-09-28T23:48:56.421Z,88.80
2017-09-28T23:51:24.179Z,88.40
2017-09-28T23:53:51.905Z,88.60
2017-09-28T23:56:19.652Z,87.30
2017-09-28T23:58:47.463Z,87.40
